Hovedside
METAR-TAF:

METAR-TAF

Lufthavner :

Notodden, Norge

Notodden lufthavn

breddegrad: 59-34N, lengdegrad: 009-13E, høyde over havet: 19 m

Gjeldene værobservasjon

Denne rapporten ble laget for 14 timer og 40 minutter siden, klokken 16:50 UTC
Vind 8 kt fra Vest
Temperatur 17°C
Luftfuktighet 45%
Trykk 1012 hPa
Sikt 10 km eller mer
Få skyer i en høyde av 5500 ft

METAR: ENNO 201650Z 28008KT 9999 FEW055 17/05 Q1012

Tid: 09:30 (07:30 UTC)

Varsel

Denne rapporten ble laget for 20 timer og 30 minutter siden, klokken 11:00 UTC
Varsel gyldig fra 20. klokken 12 UTC til 20. klokken 17 UTC
Vind 8 kt fra Vest-nordvest
Sikt 10 km eller mer
ingen skyer under 1500 m og ingen bygeskyer

TAF: ENNO 201100Z 2012/2017 29008KT CAVOK

Værobservasjoner og værvarsel for over 4000 flyplasser (METAR- og TAF-rapporter).

Tilgjengelige stasjoner er representert av de røde og gule prikkene på kartet.

Hold musepekeren over prikken for å se navnet på stasjonen.

Klikk så for å se værobservasjoner og -varsler.

For å forandre kartet kan du klikke på den grønne knappen med svart kryss for å zoome inn, på den grønne knappen med strek for å zoome ut, eller på de grønne pilene for å se tilstøtende kart.


METAR-TAF: